sensor_id;sensor_type;location;lat;lon;timestamp;pressure;altitude;pressure_sealevel;temperature
58929;BMP180;44713;53.378;10.022;2023-04-15T00:00:13;100661.00;;;8.80
58929;BMP180;44713;53.378;10.022;2023-04-15T00:02:40;100656.00;;;8.80
58929;BMP180;44713;53.378;10.022;2023-04-15T00:05:06;100655.00;;;8.80
58929;BMP180;44713;53.378;10.022;2023-04-15T00:07:31;100660.00;;;8.70
58929;BMP180;44713;53.378;10.022;2023-04-15T00:09:57;100662.00;;;8.80
58929;BMP180;44713;53.378;10.022;2023-04-15T00:12:23;100655.00;;;8.80
58929;BMP180;44713;53.378;10.022;2023-04-15T00:14:48;100656.00;;;8.70
58929;BMP180;44713;53.378;10.022;2023-04-15T00:17:15;100661.00;;;8.60
58929;BMP180;44713;53.378;10.022;2023-04-15T00:19:41;100649.00;;;8.60
58929;BMP180;44713;53.378;10.022;2023-04-15T00:22:06;100652.00;;;8.40
58929;BMP180;44713;53.378;10.022;2023-04-15T00:24:32;100655.00;;;8.50
58929;BMP180;44713;53.378;10.022;2023-04-15T00:26:58;100658.00;;;8.50
58929;BMP180;44713;53.378;10.022;2023-04-15T00:29:24;100647.00;;;8.60
58929;BMP180;44713;53.378;10.022;2023-04-15T00:31:49;100653.00;;;8.70
58929;BMP180;44713;53.378;10.022;2023-04-15T00:34:15;100652.00;;;8.60
58929;BMP180;44713;53.378;10.022;2023-04-15T00:36:42;100649.00;;;8.60
58929;BMP180;44713;53.378;10.022;2023-04-15T00:39:07;100643.00;;;8.60
58929;BMP180;44713;53.378;10.022;2023-04-15T00:41:33;100648.00;;;8.60
58929;BMP180;44713;53.378;10.022;2023-04-15T00:44:01;100641.00;;;8.60
58929;BMP180;44713;53.378;10.022;2023-04-15T00:46:27;100651.00;;;8.40
58929;BMP180;44713;53.378;10.022;2023-04-15T00:48:54;100647.00;;;8.50
58929;BMP180;44713;53.378;10.022;2023-04-15T00:51:19;100645.00;;;8.50
58929;BMP180;44713;53.378;10.022;2023-04-15T00:53:44;100649.00;;;8.60
58929;BMP180;44713;53.378;10.022;2023-04-15T00:56:11;100647.00;;;8.60
58929;BMP180;44713;53.378;10.022;2023-04-15T00:58:36;100651.00;;;8.60
58929;BMP180;44713;53.378;10.022;2023-04-15T01:01:02;100646.00;;;8.60
58929;BMP180;44713;53.378;10.022;2023-04-15T01:03:28;100645.00;;;8.50
58929;BMP180;44713;53.378;10.022;2023-04-15T01:05:54;100642.00;;;8.50
58929;BMP180;44713;53.378;10.022;2023-04-15T01:08:31;100642.00;;;8.50
58929;BMP180;44713;53.378;10.022;2023-04-15T01:10:59;100645.00;;;8.60
58929;BMP180;44713;53.378;10.022;2023-04-15T01:13:25;100632.00;;;8.50
58929;BMP180;44713;53.378;10.022;2023-04-15T01:15:51;100638.00;;;8.60
58929;BMP180;44713;53.378;10.022;2023-04-15T01:18:17;100640.00;;;8.50
58929;BMP180;44713;53.378;10.022;2023-04-15T01:20:43;100631.00;;;8.50
58929;BMP180;44713;53.378;10.022;2023-04-15T01:23:08;100635.00;;;8.50
58929;BMP180;44713;53.378;10.022;2023-04-15T01:25:34;100629.00;;;8.40
58929;BMP180;44713;53.378;10.022;2023-04-15T01:28:00;100624.00;;;8.40
58929;BMP180;44713;53.378;10.022;2023-04-15T01:30:25;100622.00;;;8.30
58929;BMP180;44713;53.378;10.022;2023-04-15T01:32:52;100623.00;;;8.40
58929;BMP180;44713;53.378;10.022;2023-04-15T01:35:18;100618.00;;;8.30
58929;BMP180;44713;53.378;10.022;2023-04-15T01:37:44;100617.00;;;8.20
58929;BMP180;44713;53.378;10.022;2023-04-15T01:40:09;100612.00;;;8.20
58929;BMP180;44713;53.378;10.022;2023-04-15T01:42:35;100611.00;;;8.20
58929;BMP180;44713;53.378;10.022;2023-04-15T01:45:02;100600.00;;;8.30
58929;BMP180;44713;53.378;10.022;2023-04-15T01:47:28;100608.00;;;8.20
58929;BMP180;44713;53.378;10.022;2023-04-15T01:49:53;100607.00;;;8.20
58929;BMP180;44713;53.378;10.022;2023-04-15T01:52:18;100607.00;;;8.30
58929;BMP180;44713;53.378;10.022;2023-04-15T01:54:44;100604.00;;;8.30
58929;BMP180;44713;53.378;10.022;2023-04-15T01:57:10;100617.00;;;8.30
58929;BMP180;44713;53.378;10.022;2023-04-15T01:59:36;100615.00;;;8.30
58929;BMP180;44713;53.378;10.022;2023-04-15T02:02:01;100612.00;;;8.40
58929;BMP180;44713;53.378;10.022;2023-04-15T02:04:27;100614.00;;;8.30
58929;BMP180;44713;53.378;10.022;2023-04-15T02:06:52;100608.00;;;8.30
58929;BMP180;44713;53.378;10.022;2023-04-15T02:09:20;100598.00;;;8.30
58929;BMP180;44713;53.378;10.022;2023-04-15T02:11:45;100598.00;;;8.10
58929;BMP180;44713;53.378;10.022;2023-04-15T02:14:10;100602.00;;;8.20
58929;BMP180;44713;53.378;10.022;2023-04-15T02:16:36;100592.00;;;8.20
58929;BMP180;44713;53.378;10.022;2023-04-15T02:19:01;100595.00;;;8.30
58929;BMP180;44713;53.378;10.022;2023-04-15T02:21:31;100607.00;;;8.20
58929;BMP180;44713;53.378;10.022;2023-04-15T02:23:56;100599.00;;;8.20
58929;BMP180;44713;53.378;10.022;2023-04-15T02:26:22;100598.00;;;8.20
58929;BMP180;44713;53.378;10.022;2023-04-15T02:28:49;100597.00;;;8.30
58929;BMP180;44713;53.378;10.022;2023-04-15T02:31:15;100590.00;;;8.30
58929;BMP180;44713;53.378;10.022;2023-04-15T02:33:41;100594.00;;;8.30
58929;BMP180;44713;53.378;10.022;2023-04-15T02:36:07;100590.00;;;8.20
58929;BMP180;44713;53.378;10.022;2023-04-15T02:38:32;100587.00;;;8.20
58929;BMP180;44713;53.378;10.022;2023-04-15T02:40:57;100590.00;;;8.30
58929;BMP180;44713;53.378;10.022;2023-04-15T02:43:23;100590.00;;;8.20
58929;BMP180;44713;53.378;10.022;2023-04-15T02:45:49;100593.00;;;8.20
58929;BMP180;44713;53.378;10.022;2023-04-15T02:48:15;100600.00;;;8.20
58929;BMP180;44713;53.378;10.022;2023-04-15T02:50:44;100594.00;;;8.20
58929;BMP180;44713;53.378;10.022;2023-04-15T02:53:11;100591.00;;;8.20
58929;BMP180;44713;53.378;10.022;2023-04-15T02:55:38;100597.00;;;8.10
58929;BMP180;44713;53.378;10.022;2023-04-15T02:58:04;100596.00;;;8.10
58929;BMP180;44713;53.378;10.022;2023-04-15T03:00:29;100596.00;;;8.20
58929;BMP180;44713;53.378;10.022;2023-04-15T03:03:02;100598.00;;;8.20
58929;BMP180;44713;53.378;10.022;2023-04-15T03:05:28;100586.00;;;8.10
58929;BMP180;44713;53.378;10.022;2023-04-15T03:07:54;100586.00;;;8.20
58929;BMP180;44713;53.378;10.022;2023-04-15T03:10:20;100588.00;;;8.20
58929;BMP180;44713;53.378;10.022;2023-04-15T03:12:46;100593.00;;;8.20
58929;BMP180;44713;53.378;10.022;2023-04-15T03:15:16;100596.00;;;8.30
58929;BMP180;44713;53.378;10.022;2023-04-15T03:17:45;100592.00;;;8.30
58929;BMP180;44713;53.378;10.022;2023-04-15T03:20:12;100587.00;;;8.30
58929;BMP180;44713;53.378;10.022;2023-04-15T03:22:37;100583.00;;;8.40
58929;BMP180;44713;53.378;10.022;2023-04-15T03:25:03;100583.00;;;8.40
58929;BMP180;44713;53.378;10.022;2023-04-15T03:27:28;100588.00;;;8.40
58929;BMP180;44713;53.378;10.022;2023-04-15T03:29:57;100586.00;;;8.30
58929;BMP180;44713;53.378;10.022;2023-04-15T03:32:25;100573.00;;;8.30
58929;BMP180;44713;53.378;10.022;2023-04-15T03:34:51;100577.00;;;8.30
58929;BMP180;44713;53.378;10.022;2023-04-15T03:37:16;100576.00;;;8.40
58929;BMP180;44713;53.378;10.022;2023-04-15T03:39:41;100582.00;;;8.30
58929;BMP180;44713;53.378;10.022;2023-04-15T03:42:07;100576.00;;;8.40
58929;BMP180;44713;53.378;10.022;2023-04-15T03:44:32;100572.00;;;8.30
58929;BMP180;44713;53.378;10.022;2023-04-15T03:46:57;100581.00;;;8.30
58929;BMP180;44713;53.378;10.022;2023-04-15T03:49:23;100577.00;;;8.30
58929;BMP180;44713;53.378;10.022;2023-04-15T03:51:48;100574.00;;;8.30
58929;BMP180;44713;53.378;10.022;2023-04-15T03:54:13;100593.00;;;8.30
58929;BMP180;44713;53.378;10.022;2023-04-15T03:56:39;100576.00;;;8.30
58929;BMP180;44713;53.378;10.022;2023-04-15T03:59:05;100580.00;;;8.30
58929;BMP180;44713;53.378;10.022;2023-04-15T04:01:30;100580.00;;;8.30
58929;BMP180;44713;53.378;10.022;2023-04-15T04:03:55;100591.00;;;8.40
58929;BMP180;44713;53.378;10.022;2023-04-15T04:06:20;100588.00;;;8.40
58929;BMP180;44713;53.378;10.022;2023-04-15T04:08:46;100590.00;;;8.40
58929;BMP180;44713;53.378;10.022;2023-04-15T04:11:11;100588.00;;;8.40
58929;BMP180;44713;53.378;10.022;2023-04-15T04:13:37;100578.00;;;8.30
58929;BMP180;44713;53.378;10.022;2023-04-15T04:16:02;100582.00;;;8.30
58929;BMP180;44713;53.378;10.022;2023-04-15T04:18:29;100588.00;;;8.40
58929;BMP180;44713;53.378;10.022;2023-04-15T04:20:55;100590.00;;;8.40
58929;BMP180;44713;53.378;10.022;2023-04-15T04:23:20;100591.00;;;8.40
58929;BMP180;44713;53.378;10.022;2023-04-15T04:25:46;100592.00;;;8.30
58929;BMP180;44713;53.378;10.022;2023-04-15T04:28:11;100589.00;;;8.20
58929;BMP180;44713;53.378;10.022;2023-04-15T04:30:37;100592.00;;;8.30
58929;BMP180;44713;53.378;10.022;2023-04-15T04:33:02;100591.00;;;8.30
58929;BMP180;44713;53.378;10.022;2023-04-15T04:35:27;100582.00;;;8.30
58929;BMP180;44713;53.378;10.022;2023-04-15T04:37:53;100579.00;;;8.20
58929;BMP180;44713;53.378;10.022;2023-04-15T04:40:18;100586.00;;;8.20
58929;BMP180;44713;53.378;10.022;2023-04-15T04:42:43;100587.00;;;8.20
58929;BMP180;44713;53.378;10.022;2023-04-15T04:45:09;100594.00;;;8.30
58929;BMP180;44713;53.378;10.022;2023-04-15T04:47:34;100597.00;;;8.30
58929;BMP180;44713;53.378;10.022;2023-04-15T04:49:59;100597.00;;;8.40
58929;BMP180;44713;53.378;10.022;2023-04-15T04:52:25;100594.00;;;8.40
58929;BMP180;44713;53.378;10.022;2023-04-15T04:54:50;100586.00;;;8.40
58929;BMP180;44713;53.378;10.022;2023-04-15T04:57:15;100586.00;;;8.30
58929;BMP180;44713;53.378;10.022;2023-04-15T04:59:41;100583.00;;;8.30
58929;BMP180;44713;53.378;10.022;2023-04-15T05:02:06;100588.00;;;8.30
58929;BMP180;44713;53.378;10.022;2023-04-15T05:04:32;100595.00;;;8.40
58929;BMP180;44713;53.378;10.022;2023-04-15T05:06:57;100594.00;;;8.30
58929;BMP180;44713;53.378;10.022;2023-04-15T05:09:23;100593.00;;;8.20
58929;BMP180;44713;53.378;10.022;2023-04-15T05:11:49;100594.00;;;8.30
58929;BMP180;44713;53.378;10.022;2023-04-15T05:14:14;100597.00;;;8.40
58929;BMP180;44713;53.378;10.022;2023-04-15T05:16:39;100598.00;;;8.50
58929;BMP180;44713;53.378;10.022;2023-04-15T05:19:05;100603.00;;;8.40
58929;BMP180;44713;53.378;10.022;2023-04-15T05:21:30;100590.00;;;8.50
58929;BMP180;44713;53.378;10.022;2023-04-15T05:23:56;100590.00;;;8.50
58929;BMP180;44713;53.378;10.022;2023-04-15T05:26:21;100595.00;;;8.50
58929;BMP180;44713;53.378;10.022;2023-04-15T05:28:48;100602.00;;;8.50
58929;BMP180;44713;53.378;10.022;2023-04-15T05:31:13;100603.00;;;8.50
58929;BMP180;44713;53.378;10.022;2023-04-15T05:33:39;100595.00;;;8.40
58929;BMP180;44713;53.378;10.022;2023-04-15T05:36:05;100596.00;;;8.50
58929;BMP180;44713;53.378;10.022;2023-04-15T05:38:30;100591.00;;;8.50
58929;BMP180;44713;53.378;10.022;2023-04-15T05:40:55;100583.00;;;8.50
58929;BMP180;44713;53.378;10.022;2023-04-15T05:43:21;100593.00;;;8.60
58929;BMP180;44713;53.378;10.022;2023-04-15T05:45:46;100596.00;;;8.50
58929;BMP180;44713;53.378;10.022;2023-04-15T05:48:12;100576.00;;;8.60
58929;BMP180;44713;53.378;10.022;2023-04-15T05:50:40;100592.00;;;8.60
58929;BMP180;44713;53.378;10.022;2023-04-15T05:53:06;100601.00;;;8.50
58929;BMP180;44713;53.378;10.022;2023-04-15T05:55:31;100604.00;;;8.60
58929;BMP180;44713;53.378;10.022;2023-04-15T05:57:56;100608.00;;;8.50
58929;BMP180;44713;53.378;10.022;2023-04-15T06:00:22;100613.00;;;8.60
58929;BMP180;44713;53.378;10.022;2023-04-15T06:02:47;100603.00;;;8.60
58929;BMP180;44713;53.378;10.022;2023-04-15T06:05:13;100605.00;;;8.60
58929;BMP180;44713;53.378;10.022;2023-04-15T06:07:39;100610.00;;;8.60
58929;BMP180;44713;53.378;10.022;2023-04-15T06:10:05;100614.00;;;8.60
58929;BMP180;44713;53.378;10.022;2023-04-15T06:12:32;100618.00;;;8.60
58929;BMP180;44713;53.378;10.022;2023-04-15T06:14:57;100617.00;;;8.60
58929;BMP180;44713;53.378;10.022;2023-04-15T06:17:23;100617.00;;;8.60
58929;BMP180;44713;53.378;10.022;2023-04-15T06:19:48;100616.00;;;8.70
58929;BMP180;44713;53.378;10.022;2023-04-15T06:22:19;100618.00;;;8.70
58929;BMP180;44713;53.378;10.022;2023-04-15T06:24:45;100627.00;;;8.70
58929;BMP180;44713;53.378;10.022;2023-04-15T06:27:10;100623.00;;;8.60
58929;BMP180;44713;53.378;10.022;2023-04-15T06:29:35;100620.00;;;8.60
58929;BMP180;44713;53.378;10.022;2023-04-15T06:32:09;100623.00;;;8.70
58929;BMP180;44713;53.378;10.022;2023-04-15T06:34:35;100628.00;;;8.70
58929;BMP180;44713;53.378;10.022;2023-04-15T06:37:00;100636.00;;;8.70
58929;BMP180;44713;53.378;10.022;2023-04-15T06:39:25;100629.00;;;8.60
58929;BMP180;44713;53.378;10.022;2023-04-15T06:41:59;100628.00;;;8.70
58929;BMP180;44713;53.378;10.022;2023-04-15T06:44:25;100628.00;;;8.60
58929;BMP180;44713;53.378;10.022;2023-04-15T06:46:50;100629.00;;;8.70
58929;BMP180;44713;53.378;10.022;2023-04-15T06:49:16;100629.00;;;8.70
58929;BMP180;44713;53.378;10.022;2023-04-15T06:51:42;100640.00;;;8.70
58929;BMP180;44713;53.378;10.022;2023-04-15T06:54:07;100641.00;;;8.80
58929;BMP180;44713;53.378;10.022;2023-04-15T06:56:33;100644.00;;;8.80
58929;BMP180;44713;53.378;10.022;2023-04-15T06:58:58;100637.00;;;8.80
58929;BMP180;44713;53.378;10.022;2023-04-15T07:01:24;100643.00;;;8.80
58929;BMP180;44713;53.378;10.022;2023-04-15T07:03:50;100651.00;;;8.90
58929;BMP180;44713;53.378;10.022;2023-04-15T07:06:15;100650.00;;;9.00
58929;BMP180;44713;53.378;10.022;2023-04-15T07:08:41;100645.00;;;8.90
58929;BMP180;44713;53.378;10.022;2023-04-15T07:11:26;100643.00;;;8.90
58929;BMP180;44713;53.378;10.022;2023-04-15T07:13:51;100644.00;;;8.90
58929;BMP180;44713;53.378;10.022;2023-04-15T07:16:16;100650.00;;;9.00
58929;BMP180;44713;53.378;10.022;2023-04-15T07:18:42;100652.00;;;9.00
58929;BMP180;44713;53.378;10.022;2023-04-15T07:21:07;100664.00;;;9.10
58929;BMP180;44713;53.378;10.022;2023-04-15T07:23:33;100669.00;;;9.10
58929;BMP180;44713;53.378;10.022;2023-04-15T07:26:01;100664.00;;;9.10
58929;BMP180;44713;53.378;10.022;2023-04-15T07:28:27;100665.00;;;9.20
58929;BMP180;44713;53.378;10.022;2023-04-15T07:30:52;100663.00;;;9.20
58929;BMP180;44713;53.378;10.022;2023-04-15T07:33:18;100665.00;;;9.10
58929;BMP180;44713;53.378;10.022;2023-04-15T07:35:43;100666.00;;;9.10
58929;BMP180;44713;53.378;10.022;2023-04-15T07:38:09;100667.00;;;9.20
58929;BMP180;44713;53.378;10.022;2023-04-15T07:40:37;100671.00;;;9.20
58929;BMP180;44713;53.378;10.022;2023-04-15T07:43:03;100672.00;;;9.20
58929;BMP180;44713;53.378;10.022;2023-04-15T07:45:29;100666.00;;;9.30
58929;BMP180;44713;53.378;10.022;2023-04-15T07:47:55;100681.00;;;9.20
58929;BMP180;44713;53.378;10.022;2023-04-15T07:50:20;100684.00;;;9.30
58929;BMP180;44713;53.378;10.022;2023-04-15T07:52:47;100679.00;;;9.30
58929;BMP180;44713;53.378;10.022;2023-04-15T07:55:13;100683.00;;;9.30
58929;BMP180;44713;53.378;10.022;2023-04-15T07:57:39;100678.00;;;9.30
58929;BMP180;44713;53.378;10.022;2023-04-15T08:00:05;100686.00;;;9.30
58929;BMP180;44713;53.378;10.022;2023-04-15T08:02:38;100687.00;;;9.30
58929;BMP180;44713;53.378;10.022;2023-04-15T08:05:04;100685.00;;;9.40
58929;BMP180;44713;53.378;10.022;2023-04-15T08:07:29;100701.00;;;9.30
58929;BMP180;44713;53.378;10.022;2023-04-15T08:09:55;100691.00;;;9.30
58929;BMP180;44713;53.378;10.022;2023-04-15T08:12:24;100698.00;;;9.30
58929;BMP180;44713;53.378;10.022;2023-04-15T08:14:50;100697.00;;;9.30
58929;BMP180;44713;53.378;10.022;2023-04-15T08:17:16;100706.00;;;9.50
58929;BMP180;44713;53.378;10.022;2023-04-15T08:19:43;100701.00;;;9.50
58929;BMP180;44713;53.378;10.022;2023-04-15T08:22:09;100707.00;;;9.50
58929;BMP180;44713;53.378;10.022;2023-04-15T08:24:36;100698.00;;;9.60
58929;BMP180;44713;53.378;10.022;2023-04-15T08:27:07;100702.00;;;9.50
58929;BMP180;44713;53.378;10.022;2023-04-15T08:29:42;100704.00;;;9.60
58929;BMP180;44713;53.378;10.022;2023-04-15T08:32:11;100703.00;;;9.40
58929;BMP180;44713;53.378;10.022;2023-04-15T08:34:36;100694.00;;;9.50
58929;BMP180;44713;53.378;10.022;2023-04-15T08:37:01;100703.00;;;9.60
58929;BMP180;44713;53.378;10.022;2023-04-15T08:39:27;100695.00;;;9.60
58929;BMP180;44713;53.378;10.022;2023-04-15T08:42:00;100701.00;;;9.80
58929;BMP180;44713;53.378;10.022;2023-04-15T08:44:27;100704.00;;;9.80
58929;BMP180;44713;53.378;10.022;2023-04-15T08:46:55;100704.00;;;9.80
58929;BMP180;44713;53.378;10.022;2023-04-15T08:49:28;100704.00;;;9.90
58929;BMP180;44713;53.378;10.022;2023-04-15T08:51:58;100709.00;;;9.90
58929;BMP180;44713;53.378;10.022;2023-04-15T08:54:25;100710.00;;;10.00
58929;BMP180;44713;53.378;10.022;2023-04-15T08:56:51;100706.00;;;9.90
58929;BMP180;44713;53.378;10.022;2023-04-15T08:59:18;100715.00;;;10.00
58929;BMP180;44713;53.378;10.022;2023-04-15T09:01:45;100725.00;;;10.00
58929;BMP180;44713;53.378;10.022;2023-04-15T09:04:11;100720.00;;;9.90
58929;BMP180;44713;53.378;10.022;2023-04-15T09:06:38;100729.00;;;10.00
58929;BMP180;44713;53.378;10.022;2023-04-15T09:09:04;100742.00;;;10.10
58929;BMP180;44713;53.378;10.022;2023-04-15T09:11:29;100732.00;;;10.10
58929;BMP180;44713;53.378;10.022;2023-04-15T09:13:55;100731.00;;;10.20
58929;BMP180;44713;53.378;10.022;2023-04-15T09:16:20;100728.00;;;10.10
58929;BMP180;44713;53.378;10.022;2023-04-15T09:18:46;100733.00;;;10.10
58929;BMP180;44713;53.378;10.022;2023-04-15T09:21:16;100734.00;;;10.10
58929;BMP180;44713;53.378;10.022;2023-04-15T09:23:56;100733.00;;;10.20
58929;BMP180;44713;53.378;10.022;2023-04-15T09:26:35;100734.00;;;10.20
58929;BMP180;44713;53.378;10.022;2023-04-15T09:29:08;100739.00;;;10.20
58929;BMP180;44713;53.378;10.022;2023-04-15T09:31:35;100739.00;;;10.30
58929;BMP180;44713;53.378;10.022;2023-04-15T09:34:01;100736.00;;;10.40
58929;BMP180;44713;53.378;10.022;2023-04-15T09:36:27;100740.00;;;10.60
58929;BMP180;44713;53.378;10.022;2023-04-15T09:38:57;100728.00;;;10.60
58929;BMP180;44713;53.378;10.022;2023-04-15T09:41:23;100733.00;;;10.80
58929;BMP180;44713;53.378;10.022;2023-04-15T09:43:49;100735.00;;;10.80
58929;BMP180;44713;53.378;10.022;2023-04-15T09:46:14;100732.00;;;10.90
58929;BMP180;44713;53.378;10.022;2023-04-15T09:48:40;100736.00;;;10.90
58929;BMP180;44713;53.378;10.022;2023-04-15T09:51:05;100737.00;;;11.00
58929;BMP180;44713;53.378;10.022;2023-04-15T09:53:33;100744.00;;;11.00
58929;BMP180;44713;53.378;10.022;2023-04-15T09:55:59;100739.00;;;11.10
58929;BMP180;44713;53.378;10.022;2023-04-15T09:58:31;100728.00;;;11.30
58929;BMP180;44713;53.378;10.022;2023-04-15T10:00:58;100732.00;;;11.30
58929;BMP180;44713;53.378;10.022;2023-04-15T10:05:51;100738.00;;;11.40
58929;BMP180;44713;53.378;10.022;2023-04-15T10:08:19;100746.00;;;11.40
58929;BMP180;44713;53.378;10.022;2023-04-15T10:10:45;100753.00;;;11.60
58929;BMP180;44713;53.378;10.022;2023-04-15T10:13:17;100760.00;;;11.60
58929;BMP180;44713;53.378;10.022;2023-04-15T10:15:44;100753.00;;;11.80
58929;BMP180;44713;53.378;10.022;2023-04-15T10:18:18;100752.00;;;12.00
58929;BMP180;44713;53.378;10.022;2023-04-15T10:20:46;100752.00;;;12.00
58929;BMP180;44713;53.378;10.022;2023-04-15T10:23:12;100749.00;;;12.10
58929;BMP180;44713;53.378;10.022;2023-04-15T10:25:37;100748.00;;;12.50
58929;BMP180;44713;53.378;10.022;2023-04-15T10:28:05;100748.00;;;12.60
58929;BMP180;44713;53.378;10.022;2023-04-15T10:30:32;100747.00;;;12.80
58929;BMP180;44713;53.378;10.022;2023-04-15T10:32:58;100751.00;;;13.00
58929;BMP180;44713;53.378;10.022;2023-04-15T10:35:24;100759.00;;;13.10
58929;BMP180;44713;53.378;10.022;2023-04-15T10:37:50;100760.00;;;13.10
58929;BMP180;44713;53.378;10.022;2023-04-15T10:40:26;100764.00;;;13.20
58929;BMP180;44713;53.378;10.022;2023-04-15T10:42:56;100761.00;;;13.10
58929;BMP180;44713;53.378;10.022;2023-04-15T10:45:21;100768.00;;;13.20
58929;BMP180;44713;53.378;10.022;2023-04-15T10:48:02;100762.00;;;12.90
58929;BMP180;44713;53.378;10.022;2023-04-15T10:50:29;100764.00;;;13.10
58929;BMP180;44713;53.378;10.022;2023-04-15T10:52:55;100765.00;;;13.20
58929;BMP180;44713;53.378;10.022;2023-04-15T10:55:23;100769.00;;;13.40
58929;BMP180;44713;53.378;10.022;2023-04-15T10:57:53;100770.00;;;13.40
58929;BMP180;44713;53.378;10.022;2023-04-15T11:00:21;100777.00;;;13.60
58929;BMP180;44713;53.378;10.022;2023-04-15T11:02:57;100772.00;;;13.60
58929;BMP180;44713;53.378;10.022;2023-04-15T11:08:03;100776.00;;;13.50
58929;BMP180;44713;53.378;10.022;2023-04-15T11:20:45;100796.00;;;13.70
58929;BMP180;44713;53.378;10.022;2023-04-15T11:23:12;100795.00;;;13.70
58929;BMP180;44713;53.378;10.022;2023-04-15T11:25:38;100795.00;;;13.70
58929;BMP180;44713;53.378;10.022;2023-04-15T11:28:04;100797.00;;;13.70
58929;BMP180;44713;53.378;10.022;2023-04-15T11:30:31;100803.00;;;13.70
58929;BMP180;44713;53.378;10.022;2023-04-15T11:32:59;100800.00;;;13.80
58929;BMP180;44713;53.378;10.022;2023-04-15T11:35:29;100805.00;;;13.80
58929;BMP180;44713;53.378;10.022;2023-04-15T11:37:55;100813.00;;;13.90
58929;BMP180;44713;53.378;10.022;2023-04-15T11:40:25;100810.00;;;13.90
58929;BMP180;44713;53.378;10.022;2023-04-15T11:45:36;100817.00;;;14.00
58929;BMP180;44713;53.378;10.022;2023-04-15T11:48:06;100808.00;;;14.10
58929;BMP180;44713;53.378;10.022;2023-04-15T11:50:32;100807.00;;;14.30
58929;BMP180;44713;53.378;10.022;2023-04-15T11:53:00;100821.00;;;14.40
58929;BMP180;44713;53.378;10.022;2023-04-15T11:55:26;100819.00;;;14.40
58929;BMP180;44713;53.378;10.022;2023-04-15T12:00:38;100829.00;;;14.50
58929;BMP180;44713;53.378;10.022;2023-04-15T12:03:16;100832.00;;;14.60
58929;BMP180;44713;53.378;10.022;2023-04-15T12:08:51;100827.00;;;14.70
58929;BMP180;44713;53.378;10.022;2023-04-15T12:11:18;100827.00;;;14.80
58929;BMP180;44713;53.378;10.022;2023-04-15T12:13:47;100821.00;;;14.70
58929;BMP180;44713;53.378;10.022;2023-04-15T12:16:17;100831.00;;;14.70
58929;BMP180;44713;53.378;10.022;2023-04-15T12:18:49;100823.00;;;14.70
58929;BMP180;44713;53.378;10.022;2023-04-15T12:21:18;100825.00;;;14.80
58929;BMP180;44713;53.378;10.022;2023-04-15T12:23:51;100825.00;;;15.10
58929;BMP180;44713;53.378;10.022;2023-04-15T12:26:28;100825.00;;;15.30
58929;BMP180;44713;53.378;10.022;2023-04-15T12:28:54;100832.00;;;15.30
58929;BMP180;44713;53.378;10.022;2023-04-15T12:31:21;100830.00;;;15.30
58929;BMP180;44713;53.378;10.022;2023-04-15T12:33:48;100843.00;;;15.30
58929;BMP180;44713;53.378;10.022;2023-04-15T12:36:14;100839.00;;;15.30
58929;BMP180;44713;53.378;10.022;2023-04-15T12:38:39;100833.00;;;15.20
58929;BMP180;44713;53.378;10.022;2023-04-15T12:41:05;100847.00;;;15.20
58929;BMP180;44713;53.378;10.022;2023-04-15T12:43:30;100856.00;;;15.10
58929;BMP180;44713;53.378;10.022;2023-04-15T12:45:57;100850.00;;;14.90
58929;BMP180;44713;53.378;10.022;2023-04-15T12:48:22;100862.00;;;14.90
58929;BMP180;44713;53.378;10.022;2023-04-15T12:50:47;100857.00;;;14.90
58929;BMP180;44713;53.378;10.022;2023-04-15T12:53:13;100859.00;;;14.80
58929;BMP180;44713;53.378;10.022;2023-04-15T12:55:38;100861.00;;;14.80
58929;BMP180;44713;53.378;10.022;2023-04-15T12:58:03;100863.00;;;14.90
58929;BMP180;44713;53.378;10.022;2023-04-15T13:00:29;100863.00;;;15.00
58929;BMP180;44713;53.378;10.022;2023-04-15T13:02:54;100877.00;;;15.00
58929;BMP180;44713;53.378;10.022;2023-04-15T13:05:19;100874.00;;;14.80
58929;BMP180;44713;53.378;10.022;2023-04-15T13:07:45;100872.00;;;14.80
58929;BMP180;44713;53.378;10.022;2023-04-15T13:10:10;100881.00;;;15.00
58929;BMP180;44713;53.378;10.022;2023-04-15T13:12:35;100883.00;;;15.00
58929;BMP180;44713;53.378;10.022;2023-04-15T13:15:02;100882.00;;;14.90
58929;BMP180;44713;53.378;10.022;2023-04-15T13:17:28;100884.00;;;14.70
58929;BMP180;44713;53.378;10.022;2023-04-15T13:19:53;100895.00;;;14.70
58929;BMP180;44713;53.378;10.022;2023-04-15T13:22:19;100895.00;;;14.60
58929;BMP180;44713;53.378;10.022;2023-04-15T13:24:44;100901.00;;;14.50
58929;BMP180;44713;53.378;10.022;2023-04-15T13:27:10;100899.00;;;14.60
58929;BMP180;44713;53.378;10.022;2023-04-15T13:29:35;100895.00;;;14.60
58929;BMP180;44713;53.378;10.022;2023-04-15T13:32:01;100905.00;;;14.60
58929;BMP180;44713;53.378;10.022;2023-04-15T13:34:26;100908.00;;;14.60
58929;BMP180;44713;53.378;10.022;2023-04-15T13:36:52;100900.00;;;14.60
58929;BMP180;44713;53.378;10.022;2023-04-15T13:39:17;100905.00;;;14.60
58929;BMP180;44713;53.378;10.022;2023-04-15T13:41:42;100911.00;;;14.60
58929;BMP180;44713;53.378;10.022;2023-04-15T13:44:08;100913.00;;;14.40
58929;BMP180;44713;53.378;10.022;2023-04-15T13:46:33;100915.00;;;14.40
58929;BMP180;44713;53.378;10.022;2023-04-15T13:48:59;100915.00;;;14.50
58929;BMP180;44713;53.378;10.022;2023-04-15T13:51:24;100919.00;;;14.60
58929;BMP180;44713;53.378;10.022;2023-04-15T13:53:51;100922.00;;;14.60
58929;BMP180;44713;53.378;10.022;2023-04-15T13:56:16;100929.00;;;14.50
58929;BMP180;44713;53.378;10.022;2023-04-15T13:58:41;100928.00;;;14.60
58929;BMP180;44713;53.378;10.022;2023-04-15T14:01:07;100932.00;;;14.70
58929;BMP180;44713;53.378;10.022;2023-04-15T14:03:34;100929.00;;;14.80
58929;BMP180;44713;53.378;10.022;2023-04-15T14:06:00;100930.00;;;14.90
58929;BMP180;44713;53.378;10.022;2023-04-15T14:08:25;100931.00;;;14.90
58929;BMP180;44713;53.378;10.022;2023-04-15T14:10:51;100930.00;;;15.00